sensor_id;sensor_type;location;lat;lon;timestamp;P1;durP1;ratioP1;P2;durP2;ratioP2
64353;SDS011;50681;53.334;-6.536;2022-12-20T00:00:15;41.00;;;6.97;;
64353;SDS011;50681;53.334;-6.536;2022-12-20T00:02:41;41.20;;;5.45;;
64353;SDS011;50681;53.334;-6.536;2022-12-20T00:05:06;40.13;;;6.47;;
64353;SDS011;50681;53.334;-6.536;2022-12-20T00:07:32;26.35;;;5.00;;
64353;SDS011;50681;53.334;-6.536;2022-12-20T00:09:58;40.03;;;6.57;;
64353;SDS011;50681;53.334;-6.536;2022-12-20T00:12:23;28.63;;;4.40;;
64353;SDS011;50681;53.334;-6.536;2022-12-20T00:14:48;30.57;;;4.43;;
64353;SDS011;50681;53.334;-6.536;2022-12-20T00:17:14;35.60;;;5.30;;
64353;SDS011;50681;53.334;-6.536;2022-12-20T00:19:39;29.10;;;4.47;;
64353;SDS011;50681;53.334;-6.536;2022-12-20T00:22:05;32.60;;;4.63;;
64353;SDS011;50681;53.334;-6.536;2022-12-20T00:24:30;23.10;;;4.07;;
64353;SDS011;50681;53.334;-6.536;2022-12-20T00:26:57;33.58;;;4.28;;
64353;SDS011;50681;53.334;-6.536;2022-12-20T00:29:22;37.20;;;5.40;;
64353;SDS011;50681;53.334;-6.536;2022-12-20T00:31:47;25.53;;;4.10;;
64353;SDS011;50681;53.334;-6.536;2022-12-20T00:34:13;28.73;;;4.10;;
64353;SDS011;50681;53.334;-6.536;2022-12-20T00:36:38;24.77;;;4.23;;
64353;SDS011;50681;53.334;-6.536;2022-12-20T00:39:04;32.17;;;4.20;;
64353;SDS011;50681;53.334;-6.536;2022-12-20T00:41:31;27.00;;;4.03;;
64353;SDS011;50681;53.334;-6.536;2022-12-20T00:43:57;33.08;;;4.38;;
64353;SDS011;50681;53.334;-6.536;2022-12-20T00:46:23;30.97;;;4.77;;
64353;SDS011;50681;53.334;-6.536;2022-12-20T00:48:49;30.73;;;4.88;;
64353;SDS011;50681;53.334;-6.536;2022-12-20T00:51:17;31.67;;;4.18;;
64353;SDS011;50681;53.334;-6.536;2022-12-20T00:53:45;30.50;;;4.35;;
64353;SDS011;50681;53.334;-6.536;2022-12-20T00:56:11;29.02;;;4.43;;
64353;SDS011;50681;53.334;-6.536;2022-12-20T00:58:38;24.85;;;3.58;;
64353;SDS011;50681;53.334;-6.536;2022-12-20T01:01:05;26.63;;;4.43;;
64353;SDS011;50681;53.334;-6.536;2022-12-20T01:03:38;28.17;;;3.92;;
64353;SDS011;50681;53.334;-6.536;2022-12-20T01:06:03;40.40;;;5.93;;
64353;SDS011;50681;53.334;-6.536;2022-12-20T01:08:30;25.70;;;4.60;;
64353;SDS011;50681;53.334;-6.536;2022-12-20T01:11:02;34.83;;;4.22;;
64353;SDS011;50681;53.334;-6.536;2022-12-20T01:16:03;32.88;;;5.00;;
64353;SDS011;50681;53.334;-6.536;2022-12-20T01:18:29;26.50;;;3.50;;
64353;SDS011;50681;53.334;-6.536;2022-12-20T01:21:05;36.23;;;5.43;;
64353;SDS011;50681;53.334;-6.536;2022-12-20T01:23:32;23.33;;;4.38;;
64353;SDS011;50681;53.334;-6.536;2022-12-20T01:26:02;25.73;;;4.00;;
64353;SDS011;50681;53.334;-6.536;2022-12-20T01:28:34;35.50;;;4.53;;
64353;SDS011;50681;53.334;-6.536;2022-12-20T01:31:00;43.17;;;5.03;;
64353;SDS011;50681;53.334;-6.536;2022-12-20T01:33:26;42.42;;;4.72;;
64353;SDS011;50681;53.334;-6.536;2022-12-20T01:36:01;28.40;;;4.80;;
64353;SDS011;50681;53.334;-6.536;2022-12-20T01:38:28;41.58;;;5.60;;
64353;SDS011;50681;53.334;-6.536;2022-12-20T01:40:54;22.80;;;3.53;;
64353;SDS011;50681;53.334;-6.536;2022-12-20T01:43:21;34.50;;;4.45;;
64353;SDS011;50681;53.334;-6.536;2022-12-20T01:45:49;28.00;;;4.30;;
64353;SDS011;50681;53.334;-6.536;2022-12-20T01:50:47;31.85;;;4.95;;
64353;SDS011;50681;53.334;-6.536;2022-12-20T01:55:40;46.00;;;5.80;;
64353;SDS011;50681;53.334;-6.536;2022-12-20T01:58:10;50.50;;;6.70;;
64353;SDS011;50681;53.334;-6.536;2022-12-20T02:00:37;45.33;;;6.43;;
64353;SDS011;50681;53.334;-6.536;2022-12-20T02:03:07;60.10;;;6.80;;
64353;SDS011;50681;53.334;-6.536;2022-12-20T02:05:36;41.40;;;6.47;;
64353;SDS011;50681;53.334;-6.536;2022-12-20T02:08:06;29.25;;;5.05;;
64353;SDS011;50681;53.334;-6.536;2022-12-20T02:10:39;39.05;;;6.75;;
64353;SDS011;50681;53.334;-6.536;2022-12-20T02:13:20;40.13;;;6.35;;
64353;SDS011;50681;53.334;-6.536;2022-12-20T02:15:55;49.30;;;9.23;;
64353;SDS011;50681;53.334;-6.536;2022-12-20T02:31:54;61.28;;;16.20;;
64353;SDS011;50681;53.334;-6.536;2022-12-20T02:34:26;82.57;;;23.35;;
64353;SDS011;50681;53.334;-6.536;2022-12-20T02:36:54;83.90;;;20.50;;
64353;SDS011;50681;53.334;-6.536;2022-12-20T02:39:19;57.40;;;12.07;;
64353;SDS011;50681;53.334;-6.536;2022-12-20T02:41:48;88.50;;;23.15;;
64353;SDS011;50681;53.334;-6.536;2022-12-20T02:44:40;55.38;;;12.70;;
64353;SDS011;50681;53.334;-6.536;2022-12-20T02:47:34;79.35;;;22.88;;
64353;SDS011;50681;53.334;-6.536;2022-12-20T02:50:05;68.05;;;16.75;;
64353;SDS011;50681;53.334;-6.536;2022-12-20T02:52:41;41.15;;;8.75;;
64353;SDS011;50681;53.334;-6.536;2022-12-20T02:55:06;72.57;;;19.83;;
64353;SDS011;50681;53.334;-6.536;2022-12-20T02:57:37;141.77;;;40.63;;
64353;SDS011;50681;53.334;-6.536;2022-12-20T03:00:18;147.55;;;38.88;;
64353;SDS011;50681;53.334;-6.536;2022-12-20T03:02:46;128.45;;;30.65;;
64353;SDS011;50681;53.334;-6.536;2022-12-20T03:05:32;203.80;;;52.63;;
64353;SDS011;50681;53.334;-6.536;2022-12-20T03:08:00;108.43;;;26.20;;
64353;SDS011;50681;53.334;-6.536;2022-12-20T03:10:26;141.27;;;39.35;;
64353;SDS011;50681;53.334;-6.536;2022-12-20T03:12:51;116.47;;;27.40;;
64353;SDS011;50681;53.334;-6.536;2022-12-20T03:15:17;117.07;;;26.97;;
64353;SDS011;50681;53.334;-6.536;2022-12-20T03:17:42;137.73;;;35.07;;
64353;SDS011;50681;53.334;-6.536;2022-12-20T03:20:08;153.90;;;41.97;;
64353;SDS011;50681;53.334;-6.536;2022-12-20T03:22:35;74.45;;;17.08;;
64353;SDS011;50681;53.334;-6.536;2022-12-20T03:25:01;194.20;;;47.53;;
64353;SDS011;50681;53.334;-6.536;2022-12-20T03:27:26;93.77;;;21.37;;
64353;SDS011;50681;53.334;-6.536;2022-12-20T03:29:53;61.90;;;12.80;;
64353;SDS011;50681;53.334;-6.536;2022-12-20T03:32:18;203.73;;;60.33;;
64353;SDS011;50681;53.334;-6.536;2022-12-20T03:34:44;81.10;;;18.70;;
64353;SDS011;50681;53.334;-6.536;2022-12-20T03:37:09;59.10;;;13.57;;
64353;SDS011;50681;53.334;-6.536;2022-12-20T03:39:35;74.00;;;13.93;;
64353;SDS011;50681;53.334;-6.536;2022-12-20T03:42:00;96.23;;;24.03;;
64353;SDS011;50681;53.334;-6.536;2022-12-20T03:44:26;74.07;;;15.90;;
64353;SDS011;50681;53.334;-6.536;2022-12-20T03:46:51;83.67;;;18.53;;
64353;SDS011;50681;53.334;-6.536;2022-12-20T03:49:17;59.60;;;11.53;;
64353;SDS011;50681;53.334;-6.536;2022-12-20T03:51:42;60.00;;;10.57;;
64353;SDS011;50681;53.334;-6.536;2022-12-20T03:54:08;56.17;;;14.13;;
64353;SDS011;50681;53.334;-6.536;2022-12-20T03:56:34;97.33;;;26.13;;
64353;SDS011;50681;53.334;-6.536;2022-12-20T03:59:01;41.97;;;6.95;;
64353;SDS011;50681;53.334;-6.536;2022-12-20T04:01:27;44.70;;;8.80;;
64353;SDS011;50681;53.334;-6.536;2022-12-20T04:03:53;49.78;;;9.30;;
64353;SDS011;50681;53.334;-6.536;2022-12-20T04:06:20;68.43;;;16.55;;
64353;SDS011;50681;53.334;-6.536;2022-12-20T04:11:11;61.72;;;16.25;;
64353;SDS011;50681;53.334;-6.536;2022-12-20T04:13:50;52.83;;;8.40;;
64353;SDS011;50681;53.334;-6.536;2022-12-20T04:16:18;44.70;;;9.07;;
64353;SDS011;50681;53.334;-6.536;2022-12-20T04:18:48;46.00;;;8.10;;
64353;SDS011;50681;53.334;-6.536;2022-12-20T04:21:14;41.17;;;6.63;;
64353;SDS011;50681;53.334;-6.536;2022-12-20T04:23:40;40.58;;;5.30;;
64353;SDS011;50681;53.334;-6.536;2022-12-20T04:26:07;49.55;;;7.50;;
64353;SDS011;50681;53.334;-6.536;2022-12-20T04:28:34;57.15;;;10.77;;
64353;SDS011;50681;53.334;-6.536;2022-12-20T04:30:59;37.70;;;5.57;;
64353;SDS011;50681;53.334;-6.536;2022-12-20T04:33:26;57.40;;;8.35;;
64353;SDS011;50681;53.334;-6.536;2022-12-20T04:35:52;39.35;;;5.15;;
64353;SDS011;50681;53.334;-6.536;2022-12-20T04:38:19;59.38;;;7.38;;
64353;SDS011;50681;53.334;-6.536;2022-12-20T04:40:48;34.92;;;6.10;;
64353;SDS011;50681;53.334;-6.536;2022-12-20T04:43:15;50.30;;;5.85;;
64353;SDS011;50681;53.334;-6.536;2022-12-20T04:45:40;47.28;;;7.18;;
64353;SDS011;50681;53.334;-6.536;2022-12-20T04:48:07;43.58;;;5.68;;
64353;SDS011;50681;53.334;-6.536;2022-12-20T04:50:32;33.70;;;5.60;;
64353;SDS011;50681;53.334;-6.536;2022-12-20T04:52:57;38.50;;;6.40;;
64353;SDS011;50681;53.334;-6.536;2022-12-20T04:55:41;40.35;;;5.40;;
64353;SDS011;50681;53.334;-6.536;2022-12-20T04:58:07;32.93;;;5.03;;
64353;SDS011;50681;53.334;-6.536;2022-12-20T05:00:32;33.47;;;3.70;;
64353;SDS011;50681;53.334;-6.536;2022-12-20T05:02:58;31.92;;;4.60;;
64353;SDS011;50681;53.334;-6.536;2022-12-20T05:05:25;33.03;;;3.88;;
64353;SDS011;50681;53.334;-6.536;2022-12-20T05:07:50;24.38;;;3.80;;
64353;SDS011;50681;53.334;-6.536;2022-12-20T05:10:16;29.42;;;4.20;;
64353;SDS011;50681;53.334;-6.536;2022-12-20T05:12:42;33.25;;;3.90;;
64353;SDS011;50681;53.334;-6.536;2022-12-20T05:15:08;25.35;;;3.20;;
64353;SDS011;50681;53.334;-6.536;2022-12-20T05:17:35;23.27;;;3.80;;
64353;SDS011;50681;53.334;-6.536;2022-12-20T05:20:00;24.83;;;4.37;;
64353;SDS011;50681;53.334;-6.536;2022-12-20T05:22:26;31.48;;;3.55;;
64353;SDS011;50681;53.334;-6.536;2022-12-20T05:25:10;31.98;;;4.13;;
64353;SDS011;50681;53.334;-6.536;2022-12-20T05:27:55;27.05;;;3.28;;
64353;SDS011;50681;53.334;-6.536;2022-12-20T05:30:20;21.50;;;3.23;;
64353;SDS011;50681;53.334;-6.536;2022-12-20T05:32:46;27.13;;;3.22;;
64353;SDS011;50681;53.334;-6.536;2022-12-20T05:35:12;23.48;;;3.05;;
64353;SDS011;50681;53.334;-6.536;2022-12-20T05:37:37;17.93;;;3.03;;
64353;SDS011;50681;53.334;-6.536;2022-12-20T05:40:03;29.40;;;3.33;;
64353;SDS011;50681;53.334;-6.536;2022-12-20T05:42:29;36.30;;;4.15;;
64353;SDS011;50681;53.334;-6.536;2022-12-20T05:44:54;22.20;;;3.70;;
64353;SDS011;50681;53.334;-6.536;2022-12-20T05:47:20;23.93;;;3.93;;
64353;SDS011;50681;53.334;-6.536;2022-12-20T05:49:45;33.17;;;3.97;;
64353;SDS011;50681;53.334;-6.536;2022-12-20T05:52:11;21.90;;;3.20;;
64353;SDS011;50681;53.334;-6.536;2022-12-20T05:54:36;25.97;;;3.97;;
64353;SDS011;50681;53.334;-6.536;2022-12-20T05:57:01;31.10;;;4.13;;
64353;SDS011;50681;53.334;-6.536;2022-12-20T05:59:27;31.80;;;3.83;;
64353;SDS011;50681;53.334;-6.536;2022-12-20T06:01:52;33.67;;;4.60;;
64353;SDS011;50681;53.334;-6.536;2022-12-20T06:04:18;32.67;;;3.72;;
64353;SDS011;50681;53.334;-6.536;2022-12-20T06:06:44;25.60;;;3.22;;
64353;SDS011;50681;53.334;-6.536;2022-12-20T06:09:10;37.88;;;5.43;;
64353;SDS011;50681;53.334;-6.536;2022-12-20T06:11:36;29.10;;;3.43;;
64353;SDS011;50681;53.334;-6.536;2022-12-20T06:14:02;35.45;;;3.58;;
64353;SDS011;50681;53.334;-6.536;2022-12-20T06:16:27;23.93;;;3.27;;
64353;SDS011;50681;53.334;-6.536;2022-12-20T06:18:53;37.53;;;3.87;;
64353;SDS011;50681;53.334;-6.536;2022-12-20T06:21:18;26.63;;;3.23;;
64353;SDS011;50681;53.334;-6.536;2022-12-20T06:23:44;31.97;;;3.60;;
64353;SDS011;50681;53.334;-6.536;2022-12-20T06:26:09;30.63;;;3.70;;
64353;SDS011;50681;53.334;-6.536;2022-12-20T06:28:35;32.33;;;3.47;;
64353;SDS011;50681;53.334;-6.536;2022-12-20T06:31:07;24.73;;;3.75;;
64353;SDS011;50681;53.334;-6.536;2022-12-20T06:33:33;40.90;;;9.80;;
64353;SDS011;50681;53.334;-6.536;2022-12-20T06:35:59;110.32;;;46.67;;
64353;SDS011;50681;53.334;-6.536;2022-12-20T06:38:25;24.17;;;6.20;;
64353;SDS011;50681;53.334;-6.536;2022-12-20T06:40:50;28.37;;;7.40;;
64353;SDS011;50681;53.334;-6.536;2022-12-20T06:43:15;77.43;;;24.63;;
64353;SDS011;50681;53.334;-6.536;2022-12-20T06:45:41;56.60;;;16.73;;
64353;SDS011;50681;53.334;-6.536;2022-12-20T06:48:09;50.53;;;14.10;;
64353;SDS011;50681;53.334;-6.536;2022-12-20T06:50:35;52.65;;;17.67;;
64353;SDS011;50681;53.334;-6.536;2022-12-20T06:53:01;33.97;;;12.07;;
64353;SDS011;50681;53.334;-6.536;2022-12-20T06:55:26;32.63;;;10.63;;
64353;SDS011;50681;53.334;-6.536;2022-12-20T06:57:52;26.03;;;7.73;;
64353;SDS011;50681;53.334;-6.536;2022-12-20T07:00:17;23.20;;;7.13;;
64353;SDS011;50681;53.334;-6.536;2022-12-20T07:02:43;24.20;;;8.93;;
64353;SDS011;50681;53.334;-6.536;2022-12-20T07:05:09;23.25;;;5.50;;
64353;SDS011;50681;53.334;-6.536;2022-12-20T07:07:35;33.17;;;10.33;;
64353;SDS011;50681;53.334;-6.536;2022-12-20T07:10:00;26.37;;;6.60;;
64353;SDS011;50681;53.334;-6.536;2022-12-20T07:12:26;28.43;;;4.27;;
64353;SDS011;50681;53.334;-6.536;2022-12-20T07:14:51;34.40;;;7.93;;
64353;SDS011;50681;53.334;-6.536;2022-12-20T07:17:17;33.60;;;5.87;;
64353;SDS011;50681;53.334;-6.536;2022-12-20T07:19:42;32.07;;;5.37;;
64353;SDS011;50681;53.334;-6.536;2022-12-20T07:22:07;27.27;;;7.10;;
64353;SDS011;50681;53.334;-6.536;2022-12-20T07:24:33;41.57;;;10.87;;
64353;SDS011;50681;53.334;-6.536;2022-12-20T07:26:59;25.83;;;4.43;;
64353;SDS011;50681;53.334;-6.536;2022-12-20T07:29:25;23.05;;;5.15;;
64353;SDS011;50681;53.334;-6.536;2022-12-20T07:31:51;24.13;;;7.53;;
64353;SDS011;50681;53.334;-6.536;2022-12-20T07:34:16;25.87;;;8.60;;
64353;SDS011;50681;53.334;-6.536;2022-12-20T07:36:43;21.13;;;5.30;;
64353;SDS011;50681;53.334;-6.536;2022-12-20T07:39:08;31.63;;;6.68;;
64353;SDS011;50681;53.334;-6.536;2022-12-20T07:41:34;31.85;;;10.15;;
64353;SDS011;50681;53.334;-6.536;2022-12-20T07:44:00;28.13;;;6.90;;
64353;SDS011;50681;53.334;-6.536;2022-12-20T07:46:25;35.83;;;5.17;;
64353;SDS011;50681;53.334;-6.536;2022-12-20T07:48:51;26.63;;;7.35;;
64353;SDS011;50681;53.334;-6.536;2022-12-20T07:51:22;24.43;;;3.50;;
64353;SDS011;50681;53.334;-6.536;2022-12-20T07:53:51;31.40;;;3.58;;
64353;SDS011;50681;53.334;-6.536;2022-12-20T07:56:22;24.23;;;3.17;;
64353;SDS011;50681;53.334;-6.536;2022-12-20T07:58:47;26.73;;;4.17;;
64353;SDS011;50681;53.334;-6.536;2022-12-20T08:01:16;33.45;;;3.40;;
64353;SDS011;50681;53.334;-6.536;2022-12-20T08:03:45;27.43;;;3.30;;
64353;SDS011;50681;53.334;-6.536;2022-12-20T08:06:16;33.10;;;7.57;;
64353;SDS011;50681;53.334;-6.536;2022-12-20T08:08:50;41.37;;;20.50;;
64353;SDS011;50681;53.334;-6.536;2022-12-20T08:11:18;18.85;;;5.43;;
64353;SDS011;50681;53.334;-6.536;2022-12-20T08:13:47;27.52;;;5.10;;
64353;SDS011;50681;53.334;-6.536;2022-12-20T08:16:13;16.48;;;3.22;;
64353;SDS011;50681;53.334;-6.536;2022-12-20T08:18:39;25.23;;;3.43;;
64353;SDS011;50681;53.334;-6.536;2022-12-20T08:21:04;29.03;;;3.33;;
64353;SDS011;50681;53.334;-6.536;2022-12-20T08:23:30;22.67;;;3.23;;
64353;SDS011;50681;53.334;-6.536;2022-12-20T08:25:55;17.17;;;3.50;;
64353;SDS011;50681;53.334;-6.536;2022-12-20T08:28:23;19.30;;;2.77;;
64353;SDS011;50681;53.334;-6.536;2022-12-20T08:30:48;17.88;;;2.60;;
64353;SDS011;50681;53.334;-6.536;2022-12-20T08:33:13;23.37;;;3.40;;
64353;SDS011;50681;53.334;-6.536;2022-12-20T08:35:39;24.27;;;3.10;;
64353;SDS011;50681;53.334;-6.536;2022-12-20T08:38:04;38.23;;;9.03;;
64353;SDS011;50681;53.334;-6.536;2022-12-20T08:40:30;35.07;;;8.00;;
64353;SDS011;50681;53.334;-6.536;2022-12-20T08:42:55;27.83;;;6.60;;
64353;SDS011;50681;53.334;-6.536;2022-12-20T08:45:22;33.83;;;10.55;;
64353;SDS011;50681;53.334;-6.536;2022-12-20T08:47:47;30.30;;;5.37;;
64353;SDS011;50681;53.334;-6.536;2022-12-20T08:50:13;37.13;;;8.83;;
64353;SDS011;50681;53.334;-6.536;2022-12-20T08:52:38;26.30;;;5.90;;
64353;SDS011;50681;53.334;-6.536;2022-12-20T08:55:04;35.70;;;7.65;;
64353;SDS011;50681;53.334;-6.536;2022-12-20T08:57:30;26.08;;;3.92;;
64353;SDS011;50681;53.334;-6.536;2022-12-20T08:59:56;26.67;;;5.73;;
64353;SDS011;50681;53.334;-6.536;2022-12-20T09:02:23;43.00;;;6.63;;
64353;SDS011;50681;53.334;-6.536;2022-12-20T09:04:49;23.17;;;4.30;;
64353;SDS011;50681;53.334;-6.536;2022-12-20T09:07:14;25.77;;;3.97;;
64353;SDS011;50681;53.334;-6.536;2022-12-20T09:09:40;18.63;;;3.87;;
64353;SDS011;50681;53.334;-6.536;2022-12-20T09:12:05;30.00;;;5.23;;
64353;SDS011;50681;53.334;-6.536;2022-12-20T09:14:31;29.17;;;7.57;;
64353;SDS011;50681;53.334;-6.536;2022-12-20T09:16:57;19.57;;;4.67;;
64353;SDS011;50681;53.334;-6.536;2022-12-20T09:19:22;34.63;;;8.53;;
64353;SDS011;50681;53.334;-6.536;2022-12-20T09:21:48;23.77;;;5.60;;
64353;SDS011;50681;53.334;-6.536;2022-12-20T09:24:13;40.90;;;9.20;;
64353;SDS011;50681;53.334;-6.536;2022-12-20T09:26:38;44.60;;;16.33;;
64353;SDS011;50681;53.334;-6.536;2022-12-20T09:29:05;29.88;;;7.60;;
64353;SDS011;50681;53.334;-6.536;2022-12-20T09:31:30;35.50;;;6.70;;
64353;SDS011;50681;53.334;-6.536;2022-12-20T09:33:56;51.50;;;9.47;;
64353;SDS011;50681;53.334;-6.536;2022-12-20T09:36:24;30.92;;;10.13;;
64353;SDS011;50681;53.334;-6.536;2022-12-20T09:38:50;42.90;;;13.95;;
64353;SDS011;50681;53.334;-6.536;2022-12-20T09:41:37;31.63;;;11.90;;
64353;SDS011;50681;53.334;-6.536;2022-12-20T09:44:09;60.05;;;23.92;;
64353;SDS011;50681;53.334;-6.536;2022-12-20T09:46:35;63.90;;;24.70;;
64353;SDS011;50681;53.334;-6.536;2022-12-20T09:49:03;24.90;;;5.85;;
64353;SDS011;50681;53.334;-6.536;2022-12-20T09:51:32;29.60;;;8.17;;
64353;SDS011;50681;53.334;-6.536;2022-12-20T09:54:20;49.58;;;14.60;;
64353;SDS011;50681;53.334;-6.536;2022-12-20T09:57:27;31.88;;;10.23;;
64353;SDS011;50681;53.334;-6.536;2022-12-20T09:59:55;30.27;;;10.07;;
64353;SDS011;50681;53.334;-6.536;2022-12-20T10:02:24;21.42;;;4.03;;
64353;SDS011;50681;53.334;-6.536;2022-12-20T10:04:53;18.77;;;4.00;;
64353;SDS011;50681;53.334;-6.536;2022-12-20T10:07:38;18.63;;;3.40;;
64353;SDS011;50681;53.334;-6.536;2022-12-20T10:10:21;29.73;;;6.85;;
64353;SDS011;50681;53.334;-6.536;2022-12-20T10:13:18;15.85;;;3.30;;
64353;SDS011;50681;53.334;-6.536;2022-12-20T10:16:11;15.00;;;3.47;;
64353;SDS011;50681;53.334;-6.536;2022-12-20T10:19:07;24.85;;;3.75;;
64353;SDS011;50681;53.334;-6.536;2022-12-20T10:24:24;16.60;;;3.75;;
64353;SDS011;50681;53.334;-6.536;2022-12-20T10:26:54;24.30;;;3.13;;
64353;SDS011;50681;53.334;-6.536;2022-12-20T10:29:22;26.08;;;3.70;;
64353;SDS011;50681;53.334;-6.536;2022-12-20T10:31:57;63.08;;;20.55;;
64353;SDS011;50681;53.334;-6.536;2022-12-20T10:34:26;30.15;;;9.70;;
64353;SDS011;50681;53.334;-6.536;2022-12-20T10:37:10;46.37;;;11.87;;
64353;SDS011;50681;53.334;-6.536;2022-12-20T10:45:31;27.50;;;8.13;;
64353;SDS011;50681;53.334;-6.536;2022-12-20T10:48:02;33.90;;;5.30;;
64353;SDS011;50681;53.334;-6.536;2022-12-20T10:50:30;38.15;;;11.43;;
64353;SDS011;50681;53.334;-6.536;2022-12-20T10:58:01;49.92;;;13.95;;
64353;SDS011;50681;53.334;-6.536;2022-12-20T11:00:29;43.13;;;11.77;;
64353;SDS011;50681;53.334;-6.536;2022-12-20T11:05:52;33.10;;;8.13;;
64353;SDS011;50681;53.334;-6.536;2022-12-20T11:08:27;26.38;;;6.53;;
64353;SDS011;50681;53.334;-6.536;2022-12-20T11:11:16;20.20;;;3.50;;
64353;SDS011;50681;53.334;-6.536;2022-12-20T11:13:47;24.92;;;7.32;;
64353;SDS011;50681;53.334;-6.536;2022-12-20T11:21:36;27.77;;;4.70;;
64353;SDS011;50681;53.334;-6.536;2022-12-20T11:30:14;29.40;;;7.90;;
64353;SDS011;50681;53.334;-6.536;2022-12-20T11:43:54;27.80;;;3.75;;
64353;SDS011;50681;53.334;-6.536;2022-12-20T11:46:47;26.65;;;5.10;;
64353;SDS011;50681;53.334;-6.536;2022-12-20T11:52:34;21.33;;;3.03;;
64353;SDS011;50681;53.334;-6.536;2022-12-20T11:57:33;31.83;;;5.22;;
64353;SDS011;50681;53.334;-6.536;2022-12-20T12:00:12;30.10;;;4.82;;
64353;SDS011;50681;53.334;-6.536;2022-12-20T12:02:46;26.48;;;3.40;;
64353;SDS011;50681;53.334;-6.536;2022-12-20T12:05:17;22.77;;;2.83;;
64353;SDS011;50681;53.334;-6.536;2022-12-20T12:07:51;31.05;;;11.07;;
64353;SDS011;50681;53.334;-6.536;2022-12-20T12:10:25;34.05;;;7.25;;
64353;SDS011;50681;53.334;-6.536;2022-12-20T12:13:10;58.70;;;18.02;;
64353;SDS011;50681;53.334;-6.536;2022-12-20T12:16:00;49.83;;;14.30;;
64353;SDS011;50681;53.334;-6.536;2022-12-20T12:18:44;31.58;;;9.55;;
64353;SDS011;50681;53.334;-6.536;2022-12-20T12:26:32;18.23;;;4.03;;
64353;SDS011;50681;53.334;-6.536;2022-12-20T12:29:03;28.20;;;6.88;;
64353;SDS011;50681;53.334;-6.536;2022-12-20T12:34:12;20.35;;;4.72;;
64353;SDS011;50681;53.334;-6.536;2022-12-20T12:37:16;15.30;;;3.42;;
64353;SDS011;50681;53.334;-6.536;2022-12-20T12:40:04;19.75;;;4.22;;
64353;SDS011;50681;53.334;-6.536;2022-12-20T12:47:53;25.42;;;6.32;;
64353;SDS011;50681;53.334;-6.536;2022-12-20T12:50:23;32.40;;;10.55;;
64353;SDS011;50681;53.334;-6.536;2022-12-20T12:52:53;27.70;;;5.25;;
64353;SDS011;50681;53.334;-6.536;2022-12-20T12:55:37;29.55;;;4.82;;
64353;SDS011;50681;53.334;-6.536;2022-12-20T13:00:50;20.83;;;4.80;;
64353;SDS011;50681;53.334;-6.536;2022-12-20T13:11:36;31.58;;;7.57;;
64353;SDS011;50681;53.334;-6.536;2022-12-20T13:16:50;17.25;;;6.15;;
64353;SDS011;50681;53.334;-6.536;2022-12-20T13:21:54;21.00;;;5.22;;
64353;SDS011;50681;53.334;-6.536;2022-12-20T13:27:40;21.92;;;4.05;;
64353;SDS011;50681;53.334;-6.536;2022-12-20T13:37:50;22.92;;;4.80;;
64353;SDS011;50681;53.334;-6.536;2022-12-20T13:43:43;18.55;;;5.25;;
64353;SDS011;50681;53.334;-6.536;2022-12-20T13:51:01;21.88;;;5.00;;
64353;SDS011;50681;53.334;-6.536;2022-12-20T13:53:27;25.00;;;5.50;;
64353;SDS011;50681;53.334;-6.536;2022-12-20T13:55:54;19.33;;;4.18;;
64353;SDS011;50681;53.334;-6.536;2022-12-20T13:58:21;22.40;;;4.35;;
64353;SDS011;50681;53.334;-6.536;2022-12-20T14:00:50;21.20;;;5.88;;
64353;SDS011;50681;53.334;-6.536;2022-12-20T14:03:24;20.58;;;4.40;;
64353;SDS011;50681;53.334;-6.536;2022-12-20T14:06:01;24.77;;;5.53;;
64353;SDS011;50681;53.334;-6.536;2022-12-20T14:08:32;16.30;;;3.30;;
64353;SDS011;50681;53.334;-6.536;2022-12-20T14:11:18;19.13;;;4.80;;
64353;SDS011;50681;53.334;-6.536;2022-12-20T14:13:51;23.50;;;5.45;;
64353;SDS011;50681;53.334;-6.536;2022-12-20T14:16:19;14.45;;;3.53;;
64353;SDS011;50681;53.334;-6.536;2022-12-20T14:18:59;13.07;;;2.88;;
64353;SDS011;50681;53.334;-6.536;2022-12-20T14:21:29;16.98;;;3.03;;
64353;SDS011;50681;53.334;-6.536;2022-12-20T14:23:56;15.85;;;3.55;;
64353;SDS011;50681;53.334;-6.536;2022-12-20T14:26:28;14.75;;;2.45;;
64353;SDS011;50681;53.334;-6.536;2022-12-20T14:28:59;12.02;;;2.92;;
64353;SDS011;50681;53.334;-6.536;2022-12-20T14:31:27;20.45;;;3.45;;
64353;SDS011;50681;53.334;-6.536;2022-12-20T14:34:05;11.35;;;2.35;;
64353;SDS011;50681;53.334;-6.536;2022-12-20T14:36:41;14.82;;;2.95;;
64353;SDS011;50681;53.334;-6.536;2022-12-20T14:39:52;19.80;;;3.03;;
64353;SDS011;50681;53.334;-6.536;2022-12-20T14:44:32;27.13;;;9.70;;
64353;SDS011;50681;53.334;-6.536;2022-12-20T14:47:03;23.63;;;9.98;;
64353;SDS011;50681;53.334;-6.536;2022-12-20T14:49:39;20.60;;;5.78;;
64353;SDS011;50681;53.334;-6.536;2022-12-20T14:54:41;18.03;;;3.30;;
64353;SDS011;50681;53.334;-6.536;2022-12-20T14:57:10;23.48;;;3.65;;
64353;SDS011;50681;53.334;-6.536;2022-12-20T14:59:44;22.02;;;3.28;;
64353;SDS011;50681;53.334;-6.536;2022-12-20T15:02:30;20.02;;;6.45;;
64353;SDS011;50681;53.334;-6.536;2022-12-20T15:05:05;20.73;;;4.38;;
64353;SDS011;50681;53.334;-6.536;2022-12-20T15:07:54;15.40;;;3.20;;
64353;SDS011;50681;53.334;-6.536;2022-12-20T15:10:20;16.27;;;3.53;;
64353;SDS011;50681;53.334;-6.536;2022-12-20T15:12:45;19.40;;;4.00;;
64353;SDS011;50681;53.334;-6.536;2022-12-20T15:15:12;11.57;;;3.33;;
64353;SDS011;50681;53.334;-6.536;2022-12-20T15:17:39;19.90;;;4.60;;
64353;SDS011;50681;53.334;-6.536;2022-12-20T15:20:07;19.60;;;5.87;;
64353;SDS011;50681;53.334;-6.536;2022-12-20T15:22:36;30.77;;;9.77;;
64353;SDS011;50681;53.334;-6.536;2022-12-20T15:25:04;17.40;;;7.77;;
64353;SDS011;50681;53.334;-6.536;2022-12-20T15:27:42;41.45;;;13.43;;
64353;SDS011;50681;53.334;-6.536;2022-12-20T15:30:11;42.27;;;19.73;;
64353;SDS011;50681;53.334;-6.536;2022-12-20T15:32:40;62.60;;;28.25;;
64353;SDS011;50681;53.334;-6.536;2022-12-20T15:35:15;61.28;;;27.50;;
64353;SDS011;50681;53.334;-6.536;2022-12-20T15:37:41;82.90;;;41.53;;
64353;SDS011;50681;53.334;-6.536;2022-12-20T15:40:06;27.47;;;6.23;;
64353;SDS011;50681;53.334;-6.536;2022-12-20T15:42:34;29.08;;;9.82;;
64353;SDS011;50681;53.334;-6.536;2022-12-20T15:45:01;15.20;;;4.70;;
64353;SDS011;50681;53.334;-6.536;2022-12-20T15:47:26;49.83;;;22.97;;
64353;SDS011;50681;53.334;-6.536;2022-12-20T15:49:52;24.30;;;7.30;;
64353;SDS011;50681;53.334;-6.536;2022-12-20T15:52:19;17.77;;;4.50;;
64353;SDS011;50681;53.334;-6.536;2022-12-20T15:54:45;21.65;;;3.90;;
64353;SDS011;50681;53.334;-6.536;2022-12-20T15:57:11;29.73;;;5.33;;
64353;SDS011;50681;53.334;-6.536;2022-12-20T15:59:38;18.15;;;5.18;;
64353;SDS011;50681;53.334;-6.536;2022-12-20T16:04:46;21.65;;;4.93;;
64353;SDS011;50681;53.334;-6.536;2022-12-20T16:07:12;21.77;;;5.38;;
64353;SDS011;50681;53.334;-6.536;2022-12-20T16:09:38;16.97;;;4.47;;
64353;SDS011;50681;53.334;-6.536;2022-12-20T16:12:04;25.87;;;4.97;;
64353;SDS011;50681;53.334;-6.536;2022-12-20T16:14:37;20.27;;;5.45;;
64353;SDS011;50681;53.334;-6.536;2022-12-20T16:17:05;19.47;;;3.40;;
64353;SDS011;50681;53.334;-6.536;2022-12-20T16:19:30;53.95;;;16.23;;
64353;SDS011;50681;53.334;-6.536;2022-12-20T16:21:55;32.60;;;6.10;;
64353;SDS011;50681;53.334;-6.536;2022-12-20T16:24:21;28.13;;;5.53;;
64353;SDS011;50681;53.334;-6.536;2022-12-20T16:26:47;28.20;;;5.53;;
64353;SDS011;50681;53.334;-6.536;2022-12-20T16:29:13;32.55;;;6.82;;
64353;SDS011;50681;53.334;-6.536;2022-12-20T16:31:39;20.43;;;4.50;;
64353;SDS011;50681;53.334;-6.536;2022-12-20T16:34:09;23.48;;;4.82;;